createdAt,value
2022-12-19T00:01:37.036Z,18.05
2022-12-19T00:04:08.850Z,17.80
2022-12-19T00:06:38.083Z,18.17
2022-12-19T00:09:10.412Z,17.92
2022-12-19T00:11:38.807Z,19.27
2022-12-19T00:14:06.405Z,15.98
2022-12-19T00:16:33.296Z,14.77
2022-12-19T00:19:01.441Z,15.20
2022-12-19T00:21:34.044Z,15.00
2022-12-19T00:24:03.255Z,16.50
2022-12-19T00:26:34.973Z,19.52
2022-12-19T00:29:09.828Z,14.68
2022-12-19T00:31:39.446Z,17.80
2022-12-19T00:34:06.242Z,18.42
2022-12-19T00:36:34.489Z,18.58
2022-12-19T00:39:05.677Z,18.95
2022-12-19T00:41:37.621Z,16.17
2022-12-19T00:44:13.792Z,16.83
2022-12-19T00:46:40.685Z,18.27
2022-12-19T00:49:07.482Z,15.48
2022-12-19T00:51:37.176Z,18.77
2022-12-19T00:54:05.496Z,16.58
2022-12-19T00:56:37.187Z,17.63
2022-12-19T00:59:04.205Z,17.88
2022-12-19T01:01:34.808Z,15.80
2022-12-19T01:04:28.054Z,18.52
2022-12-19T01:06:51.499Z,18.52
2022-12-19T01:09:18.822Z,18.00
2022-12-19T01:12:04.416Z,19.55
2022-12-19T01:14:31.193Z,17.80
2022-12-19T01:16:57.932Z,14.82
2022-12-19T01:19:26.862Z,14.77
2022-12-19T01:21:53.736Z,13.52
2022-12-19T01:24:20.461Z,13.50
2022-12-19T01:26:47.196Z,15.18
2022-12-19T01:29:14.130Z,14.70
2022-12-19T01:31:40.950Z,15.63
2022-12-19T01:34:07.772Z,19.90
2022-12-19T01:36:40.077Z,15.35
2022-12-19T01:41:35.564Z,17.08
2022-12-19T01:44:07.886Z,18.15
2022-12-19T01:46:48.502Z,18.45
2022-12-19T01:49:25.639Z,13.98
2022-12-19T01:51:56.124Z,15.73
2022-12-19T01:54:29.246Z,16.42
2022-12-19T01:56:58.984Z,16.17
2022-12-19T01:59:37.716Z,16.58
2022-12-19T02:02:16.017Z,14.60
2022-12-19T02:04:43.247Z,16.40
2022-12-19T02:07:15.912Z,12.70
2022-12-19T02:09:46.874Z,17.60
2022-12-19T02:12:14.523Z,18.38
2022-12-19T02:14:41.752Z,17.10
2022-12-19T02:17:42.549Z,15.98
2022-12-19T02:20:24.111Z,13.48
2022-12-19T02:23:18.380Z,16.88
2022-12-19T02:26:06.836Z,12.35
2022-12-19T02:29:15.978Z,16.20
2022-12-19T02:32:19.724Z,15.15
2022-12-19T02:35:31.932Z,14.27
2022-12-19T02:38:36.877Z,14.52
2022-12-19T02:41:25.051Z,16.00
2022-12-19T02:43:58.928Z,14.93
2022-12-19T02:46:27.641Z,15.88
2022-12-19T02:48:54.795Z,17.95
2022-12-19T02:51:21.539Z,13.90
2022-12-19T02:53:48.631Z,11.63
2022-12-19T02:56:46.080Z,14.30
2022-12-19T02:59:57.271Z,15.38
2022-12-19T03:02:40.898Z,12.65
2022-12-19T03:05:24.902Z,13.50
2022-12-19T03:08:28.253Z,15.60
2022-12-19T03:11:02.396Z,17.13
2022-12-19T03:13:46.635Z,14.25
2022-12-19T03:16:14.265Z,12.70
2022-12-19T03:18:41.698Z,14.95
2022-12-19T03:21:32.740Z,15.23
2022-12-19T03:23:59.673Z,16.60
2022-12-19T03:26:32.715Z,16.05
2022-12-19T03:29:13.535Z,14.05
2022-12-19T03:31:42.081Z,12.98
2022-12-19T03:34:22.600Z,16.00
2022-12-19T03:36:56.668Z,17.17
2022-12-19T03:39:25.532Z,15.45
2022-12-19T03:42:12.254Z,16.73
2022-12-19T03:44:42.855Z,14.02
2022-12-19T03:47:22.988Z,14.88
2022-12-19T03:49:50.590Z,14.55
2022-12-19T03:52:35.842Z,14.48
2022-12-19T03:55:36.374Z,13.55
2022-12-19T03:58:11.848Z,15.20
2022-12-19T04:00:47.500Z,15.85
2022-12-19T04:03:17.314Z,14.88
2022-12-19T04:05:45.997Z,13.52
2022-12-19T04:08:13.538Z,12.20
2022-12-19T04:10:56.156Z,15.48
2022-12-19T04:13:37.784Z,15.18
2022-12-19T04:16:19.098Z,13.77
2022-12-19T04:18:53.548Z,13.60
2022-12-19T04:21:31.682Z,15.02
2022-12-19T04:24:10.148Z,12.85
2022-12-19T04:26:39.435Z,17.05
2022-12-19T04:29:08.089Z,15.88
2022-12-19T04:31:36.267Z,17.33
2022-12-19T04:34:06.108Z,17.23
2022-12-19T04:36:33.085Z,17.88
2022-12-19T04:38:59.802Z,14.63
2022-12-19T04:41:26.566Z,17.73
2022-12-19T04:43:53.337Z,14.93
2022-12-19T04:46:20.139Z,17.58
2022-12-19T04:48:46.979Z,13.68
2022-12-19T04:51:13.928Z,14.60
2022-12-19T04:53:40.832Z,16.85
2022-12-19T04:56:10.346Z,13.40
2022-12-19T04:58:37.101Z,15.13
2022-12-19T05:01:06.737Z,13.98
2022-12-19T05:03:34.513Z,18.83
2022-12-19T05:06:11.897Z,14.90
2022-12-19T05:08:41.098Z,16.35
2022-12-19T05:11:19.148Z,14.55
2022-12-19T05:13:46.875Z,16.55
2022-12-19T05:16:15.984Z,17.60
2022-12-19T05:18:43.557Z,17.00
2022-12-19T05:21:11.360Z,16.10
2022-12-19T05:23:38.494Z,15.63
2022-12-19T05:26:06.321Z,16.30
2022-12-19T05:28:33.901Z,14.85
2022-12-19T05:31:05.667Z,18.88
2022-12-19T05:33:32.529Z,15.37
2022-12-19T05:35:59.356Z,12.68
2022-12-19T05:38:27.309Z,17.88
2022-12-19T05:40:54.158Z,15.73
2022-12-19T05:43:21.291Z,16.35
2022-12-19T05:45:48.072Z,15.73
2022-12-19T05:48:15.088Z,13.73
2022-12-19T05:50:42.641Z,13.77
2022-12-19T05:53:10.040Z,14.35
2022-12-19T05:55:36.778Z,16.75
2022-12-19T05:58:03.578Z,18.48
2022-12-19T06:00:30.388Z,20.38
2022-12-19T06:02:57.385Z,16.75
2022-12-19T06:05:24.232Z,16.98
2022-12-19T06:07:51.048Z,18.42
2022-12-19T06:10:17.818Z,16.73
2022-12-19T06:12:47.257Z,13.63
2022-12-19T06:15:14.032Z,15.57
2022-12-19T06:17:40.810Z,16.70
2022-12-19T06:20:08.244Z,15.52
2022-12-19T06:22:36.078Z,15.27
2022-12-19T06:25:03.019Z,15.35
2022-12-19T06:27:29.816Z,14.52
2022-12-19T06:29:56.565Z,17.38
2022-12-19T06:32:23.352Z,15.43
2022-12-19T06:35:05.404Z,14.77
2022-12-19T06:37:32.290Z,13.10
2022-12-19T06:40:01.917Z,14.38
2022-12-19T06:42:28.710Z,14.10
2022-12-19T06:44:56.604Z,15.02
2022-12-19T06:47:24.419Z,17.77
2022-12-19T06:49:51.607Z,16.98
2022-12-19T06:52:18.488Z,15.80
2022-12-19T06:54:45.310Z,17.67
2022-12-19T06:57:12.184Z,19.65
2022-12-19T06:59:38.931Z,16.30
2022-12-19T07:02:30.526Z,20.15
2022-12-19T07:05:04.712Z,15.63
2022-12-19T07:07:31.982Z,16.63
2022-12-19T07:09:59.117Z,19.25
2022-12-19T07:12:26.505Z,17.02
2022-12-19T07:14:53.910Z,16.45
2022-12-19T07:17:22.803Z,21.40
2022-12-19T07:19:49.601Z,19.98
2022-12-19T07:22:16.507Z,23.02
2022-12-19T07:24:43.700Z,19.42
2022-12-19T07:27:10.615Z,20.10
2022-12-19T07:29:37.469Z,19.60
2022-12-19T07:32:04.489Z,20.95
2022-12-19T07:34:31.375Z,16.55
2022-12-19T07:36:58.130Z,28.25
2022-12-19T07:39:25.370Z,26.05
2022-12-19T07:41:52.127Z,31.83
2022-12-19T07:44:18.921Z,42.08
2022-12-19T07:46:45.745Z,30.73
2022-12-19T07:49:16.980Z,46.30
2022-12-19T07:51:46.493Z,62.97
2022-12-19T07:54:14.291Z,42.25
2022-12-19T07:56:41.008Z,27.77
2022-12-19T07:59:08.022Z,25.08
2022-12-19T08:01:34.890Z,25.45
2022-12-19T08:04:01.762Z,26.85
2022-12-19T08:06:28.772Z,22.27
2022-12-19T08:08:55.608Z,18.50
2022-12-19T08:11:27.272Z,25.30
2022-12-19T08:13:55.062Z,23.92
2022-12-19T08:16:22.858Z,28.17
2022-12-19T08:18:49.693Z,23.45
2022-12-19T08:21:16.853Z,21.55
2022-12-19T08:23:43.632Z,32.20
2022-12-19T08:26:17.752Z,32.92
2022-12-19T08:28:48.247Z,29.63
2022-12-19T08:31:17.969Z,23.98
2022-12-19T08:33:45.000Z,20.63
2022-12-19T08:36:15.357Z,22.55
2022-12-19T08:38:42.295Z,20.33
2022-12-19T08:41:09.665Z,20.55
2022-12-19T08:43:36.699Z,19.92
2022-12-19T08:46:03.736Z,19.75
2022-12-19T08:48:32.163Z,19.98
2022-12-19T08:51:02.581Z,20.33
2022-12-19T08:53:32.669Z,20.92
2022-12-19T08:56:09.879Z,18.17
2022-12-19T08:58:36.861Z,19.58
2022-12-19T09:01:09.137Z,19.13
2022-12-19T09:03:42.830Z,14.85
2022-12-19T09:06:23.708Z,19.92
2022-12-19T09:08:50.505Z,18.60
2022-12-19T09:11:19.803Z,19.92
2022-12-19T09:13:48.348Z,19.25
2022-12-19T09:16:23.615Z,18.20
2022-12-19T09:18:53.314Z,21.15
2022-12-19T09:21:23.400Z,18.73
2022-12-19T09:23:53.919Z,20.20
2022-12-19T09:26:23.158Z,19.02
2022-12-19T09:28:51.043Z,19.58
2022-12-19T09:31:22.551Z,19.10
2022-12-19T09:33:49.579Z,20.85
2022-12-19T09:36:23.216Z,20.40
2022-12-19T09:38:51.367Z,22.00
2022-12-19T09:41:51.757Z,17.67
2022-12-19T09:44:52.865Z,20.80
2022-12-19T09:47:31.822Z,18.88
2022-12-19T09:50:00.491Z,18.50
2022-12-19T09:52:45.373Z,17.27
2022-12-19T09:55:28.379Z,19.88
2022-12-19T10:01:00.248Z,21.20
2022-12-19T10:03:30.533Z,19.50
2022-12-19T10:07:13.392Z,21.50
2022-12-19T10:11:45.744Z,23.98
2022-12-19T10:12:45.399Z,18.92
2022-12-19T10:15:43.961Z,26.75
2022-12-19T10:18:34.816Z,27.30
2022-12-19T10:21:07.935Z,26.40
2022-12-19T10:23:48.330Z,23.85
2022-12-19T10:26:34.580Z,24.00
2022-12-19T10:29:41.764Z,23.45
2022-12-19T10:32:36.917Z,26.25
2022-12-19T10:35:16.116Z,22.13
2022-12-19T10:37:56.753Z,26.02
2022-12-19T10:40:29.300Z,27.25
2022-12-19T10:43:44.072Z,24.55
2022-12-19T10:46:20.301Z,20.70
2022-12-19T10:48:51.587Z,22.13
2022-12-19T10:51:30.645Z,22.70
2022-12-19T10:54:00.356Z,21.25
2022-12-19T10:56:37.267Z,19.65
2022-12-19T10:59:21.299Z,26.10
2022-12-19T11:01:48.653Z,30.33
2022-12-19T11:04:34.660Z,35.30
2022-12-19T11:07:04.075Z,28.33
2022-12-19T11:09:41.913Z,28.65
2022-12-19T11:15:50.379Z,31.17
2022-12-19T11:20:36.403Z,25.90
2022-12-19T11:21:03.847Z,27.85
2022-12-19T11:29:34.556Z,21.17
2022-12-19T11:29:36.496Z,20.90
2022-12-19T11:30:48.856Z,20.83
2022-12-19T11:32:45.406Z,22.90
2022-12-19T11:35:37.047Z,26.38
2022-12-19T11:38:08.485Z,24.65
2022-12-19T11:40:56.059Z,24.98
2022-12-19T11:43:46.140Z,18.67
2022-12-19T11:46:24.967Z,18.60
2022-12-19T11:49:13.349Z,20.70
2022-12-19T11:52:29.445Z,18.65
2022-12-19T11:55:04.764Z,26.08
2022-12-19T11:57:32.158Z,23.50
2022-12-19T12:00:04.707Z,21.42
2022-12-19T12:03:04.631Z,26.48
2022-12-19T12:05:51.417Z,21.30
2022-12-19T12:11:38.296Z,22.83
2022-12-19T12:22:51.278Z,24.65
2022-12-19T12:25:13.318Z,25.88
2022-12-19T12:31:01.217Z,22.88
2022-12-19T12:31:09.104Z,20.75
2022-12-19T12:32:05.071Z,20.42
2022-12-19T12:32:05.402Z,18.45
2022-12-19T12:35:34.262Z,14.55
2022-12-19T12:38:40.563Z,17.77
2022-12-19T12:41:12.378Z,16.10
2022-12-19T12:44:09.317Z,20.38
2022-12-19T12:46:46.914Z,20.58
2022-12-19T12:49:42.446Z,19.50
2022-12-19T12:52:39.579Z,20.33
2022-12-19T12:55:18.354Z,16.70
2022-12-19T12:57:45.165Z,21.42
2022-12-19T13:00:31.582Z,30.67
2022-12-19T13:03:04.726Z,28.92
2022-12-19T13:05:46.728Z,19.80
2022-12-19T13:08:44.875Z,16.75
2022-12-19T13:11:39.287Z,15.00
2022-12-19T13:14:45.893Z,16.20
2022-12-19T13:17:47.600Z,19.35
2022-12-19T13:20:19.101Z,16.55
2022-12-19T13:22:59.347Z,18.70
2022-12-19T13:25:36.159Z,18.15
2022-12-19T13:28:02.830Z,20.35
2022-12-19T13:30:31.558Z,17.52
2022-12-19T13:33:01.225Z,16.63
2022-12-19T13:39:46.497Z,19.48
2022-12-19T13:39:54.015Z,27.17
2022-12-19T13:41:48.729Z,22.38
2022-12-19T13:44:21.943Z,19.75
2022-12-19T13:46:49.845Z,23.45
2022-12-19T13:49:34.133Z,15.85
2022-12-19T13:52:05.007Z,19.10
2022-12-19T13:54:45.678Z,17.55
2022-12-19T13:57:32.810Z,20.42
2022-12-19T14:00:09.981Z,20.55
2022-12-19T14:02:55.090Z,18.73
2022-12-19T14:06:17.424Z,16.48
2022-12-19T14:08:25.728Z,18.52
2022-12-19T14:11:47.509Z,26.58
2022-12-19T14:14:17.669Z,23.67
2022-12-19T14:16:48.869Z,23.42
2022-12-19T14:19:25.235Z,34.95
2022-12-19T14:22:09.023Z,48.70
2022-12-19T14:24:40.575Z,52.65
2022-12-19T14:28:21.196Z,38.72
2022-12-19T14:30:30.406Z,26.58
2022-12-19T14:33:46.308Z,20.80
2022-12-19T14:36:10.695Z,17.95
2022-12-19T14:39:24.939Z,21.02
2022-12-19T14:42:07.785Z,19.15
2022-12-19T14:52:35.435Z,20.75
2022-12-19T14:52:35.817Z,19.67
2022-12-19T14:54:34.889Z,19.20
2022-12-19T14:54:42.094Z,17.23
2022-12-19T14:56:36.302Z,21.10
2022-12-19T14:59:20.893Z,19.27
2022-12-19T15:02:27.608Z,17.10
2022-12-19T15:05:06.028Z,14.10
2022-12-19T15:07:34.420Z,13.50
2022-12-19T15:11:08.579Z,14.90
2022-12-19T15:14:54.393Z,15.40
2022-12-19T15:16:30.741Z,16.30
2022-12-19T15:19:00.908Z,14.27
2022-12-19T15:21:30.454Z,14.85
2022-12-19T15:23:57.479Z,14.75
2022-12-19T15:26:34.843Z,12.32
2022-12-19T15:29:03.342Z,13.35
2022-12-19T15:31:40.482Z,15.45
2022-12-19T15:34:36.826Z,23.88
2022-12-19T15:37:05.018Z,16.35
2022-12-19T15:39:32.132Z,16.23
2022-12-19T15:42:00.513Z,19.13
2022-12-19T15:44:40.148Z,15.82
2022-12-19T15:47:20.085Z,13.73
2022-12-19T15:49:47.576Z,15.25
2022-12-19T15:52:18.762Z,15.15
2022-12-19T15:54:49.423Z,16.08
2022-12-19T15:57:42.055Z,16.23
2022-12-19T16:00:19.863Z,13.80
2022-12-19T16:05:34.778Z,16.88
2022-12-19T16:08:01.615Z,21.27
2022-12-19T16:10:28.716Z,24.83
2022-12-19T16:12:57.867Z,22.98
2022-12-19T16:15:34.447Z,21.92
2022-12-19T16:18:03.852Z,24.42
2022-12-19T16:20:36.214Z,27.40
2022-12-19T16:23:03.151Z,26.27
2022-12-19T16:25:36.937Z,21.13
2022-12-19T16:28:06.136Z,20.60
2022-12-19T16:30:35.245Z,20.65
2022-12-19T16:33:02.381Z,22.83
2022-12-19T16:36:02.524Z,19.33
2022-12-19T16:38:17.868Z,18.75
2022-12-19T16:40:45.773Z,19.33
2022-12-19T16:43:24.245Z,19.63
2022-12-19T16:45:51.837Z,18.27
2022-12-19T16:48:27.649Z,19.05
2022-12-19T16:50:54.428Z,16.75
2022-12-19T16:53:21.237Z,20.83
2022-12-19T16:55:50.197Z,20.55
2022-12-19T16:58:22.767Z,23.48
2022-12-19T17:00:52.093Z,18.98
2022-12-19T17:03:42.950Z,18.10
2022-12-19T17:06:22.936Z,18.33
2022-12-19T17:08:49.898Z,18.08
2022-12-19T17:11:23.670Z,19.80
2022-12-19T17:14:02.680Z,17.23
2022-12-19T17:16:31.212Z,16.42
2022-12-19T17:18:59.196Z,17.48
2022-12-19T17:21:26.049Z,18.20
2022-12-19T17:23:53.025Z,21.35
2022-12-19T17:26:19.876Z,16.42
2022-12-19T17:28:49.583Z,16.77
2022-12-19T17:31:24.801Z,19.38
2022-12-19T17:33:52.058Z,14.88
2022-12-19T17:36:24.832Z,18.35
2022-12-19T17:38:52.909Z,19.33
2022-12-19T17:41:19.766Z,16.05
2022-12-19T17:43:46.581Z,15.85
2022-12-19T17:46:22.237Z,15.02
2022-12-19T17:48:52.568Z,16.73
2022-12-19T17:51:22.419Z,16.88
2022-12-19T17:53:49.922Z,17.33
2022-12-19T17:56:20.687Z,14.55
2022-12-19T17:58:48.680Z,17.17
2022-12-19T18:01:23.956Z,15.52
2022-12-19T18:03:53.025Z,18.45
2022-12-19T18:06:20.732Z,16.27
2022-12-19T18:08:48.044Z,15.85
2022-12-19T18:11:24.780Z,18.35
2022-12-19T18:13:53.312Z,15.63
2022-12-19T18:16:26.264Z,14.15
2022-12-19T18:18:53.176Z,14.57
2022-12-19T18:21:24.231Z,17.38
2022-12-19T18:23:51.767Z,17.33
2022-12-19T18:26:18.657Z,17.90
2022-12-19T18:28:45.493Z,15.73
2022-12-19T18:31:20.398Z,14.68
2022-12-19T18:33:50.607Z,18.50
2022-12-19T18:36:23.532Z,14.45
2022-12-19T18:38:51.415Z,15.15
2022-12-19T18:41:20.173Z,15.32
2022-12-19T18:43:47.701Z,14.57
2022-12-19T18:46:26.376Z,13.02
2022-12-19T18:48:53.455Z,14.57
2022-12-19T18:51:23.335Z,14.82
2022-12-19T18:53:51.009Z,13.90
2022-12-19T18:56:18.050Z,13.52
2022-12-19T18:58:44.875Z,13.43
2022-12-19T19:01:17.192Z,15.18
2022-12-19T19:03:54.458Z,14.15
2022-12-19T19:06:32.941Z,11.90
2022-12-19T19:09:03.344Z,13.20
2022-12-19T19:11:30.180Z,12.50
2022-12-19T19:13:57.155Z,12.85
2022-12-19T19:16:26.333Z,14.63
2022-12-19T19:18:55.991Z,13.23
2022-12-19T19:21:30.456Z,12.20
2022-12-19T19:24:19.508Z,14.18
2022-12-19T19:26:46.451Z,11.85
2022-12-19T19:29:19.060Z,12.82
2022-12-19T19:31:48.477Z,14.48
2022-12-19T19:34:30.161Z,13.13
2022-12-19T19:37:01.036Z,14.02
2022-12-19T19:39:28.527Z,12.57
2022-12-19T19:41:56.456Z,12.45
2022-12-19T19:44:23.418Z,10.73
2022-12-19T19:46:50.340Z,12.82
2022-12-19T19:49:17.368Z,13.48
2022-12-19T19:51:44.256Z,11.38
2022-12-19T19:54:11.211Z,12.73
2022-12-19T19:56:38.211Z,11.48
2022-12-19T19:59:05.872Z,13.98
2022-12-19T20:01:32.896Z,11.95
2022-12-19T20:03:59.880Z,12.38
2022-12-19T20:06:26.944Z,12.27
2022-12-19T20:08:53.769Z,11.52
2022-12-19T20:11:20.927Z,10.48
2022-12-19T20:13:47.931Z,11.02
2022-12-19T20:16:18.341Z,11.77
2022-12-19T20:18:53.224Z,10.40
2022-12-19T20:21:21.696Z,12.48
2022-12-19T20:23:48.564Z,11.57
2022-12-19T20:26:17.133Z,11.30
2022-12-19T20:28:49.340Z,11.80
2022-12-19T20:31:19.876Z,13.27
2022-12-19T20:33:48.589Z,12.27
2022-12-19T20:36:16.731Z,12.50
2022-12-19T20:38:43.923Z,13.43
2022-12-19T20:41:10.995Z,11.35
2022-12-19T20:43:38.812Z,11.75
2022-12-19T20:46:14.235Z,12.52
2022-12-19T20:48:41.900Z,10.60
2022-12-19T20:51:10.197Z,13.32
2022-12-19T20:53:39.049Z,11.40
2022-12-19T20:56:07.940Z,10.77
2022-12-19T20:58:37.566Z,10.40
2022-12-19T21:01:17.969Z,9.20
2022-12-19T21:03:45.287Z,10.18
2022-12-19T21:06:15.585Z,10.38
2022-12-19T21:08:42.806Z,12.15
2022-12-19T21:11:10.124Z,9.80
2022-12-19T21:13:38.053Z,12.27
2022-12-19T21:16:08.982Z,11.80
2022-12-19T21:18:38.669Z,10.77
2022-12-19T21:21:08.480Z,12.02
2022-12-19T21:23:35.382Z,11.38
2022-12-19T21:26:04.889Z,12.93
2022-12-19T21:28:32.692Z,14.48
2022-12-19T21:31:05.212Z,11.20
2022-12-19T21:33:32.425Z,9.35
2022-12-19T21:36:10.350Z,12.43
2022-12-19T21:38:37.761Z,10.82
2022-12-19T21:41:06.621Z,10.88
2022-12-19T21:43:35.005Z,11.25
2022-12-19T21:46:10.712Z,11.48
2022-12-19T21:48:40.383Z,10.27
2022-12-19T21:51:08.259Z,10.68
2022-12-19T21:53:36.977Z,10.32
2022-12-19T21:56:25.459Z,8.82
2022-12-19T21:59:02.014Z,9.48
2022-12-19T22:01:30.799Z,11.57
2022-12-19T22:04:03.987Z,10.57
2022-12-19T22:06:33.420Z,9.93
2022-12-19T22:09:02.043Z,11.57
2022-12-19T22:11:30.225Z,9.90
2022-12-19T22:14:00.553Z,10.40
2022-12-19T22:16:28.685Z,10.20
2022-12-19T22:18:56.628Z,12.15
2022-12-19T22:21:25.566Z,10.52
2022-12-19T22:23:52.838Z,10.63
2022-12-19T22:26:23.292Z,10.25
2022-12-19T22:28:54.120Z,11.60
2022-12-19T22:31:29.834Z,11.50
2022-12-19T22:34:03.141Z,11.32
2022-12-19T22:36:32.156Z,10.48
2022-12-19T22:39:01.916Z,7.88
2022-12-19T22:41:29.155Z,9.52
2022-12-19T22:43:56.643Z,12.35
2022-12-19T22:46:30.655Z,12.57
2022-12-19T22:49:01.388Z,10.57
2022-12-19T22:51:30.215Z,11.90
2022-12-19T22:53:58.184Z,12.43
2022-12-19T22:56:28.996Z,10.68
2022-12-19T22:59:00.099Z,12.55
2022-12-19T23:01:30.601Z,12.60
2022-12-19T23:04:01.505Z,9.30
2022-12-19T23:06:33.677Z,9.43
2022-12-19T23:09:00.998Z,10.27
2022-12-19T23:11:35.564Z,11.35
2022-12-19T23:14:05.550Z,10.25
2022-12-19T23:16:32.553Z,11.48
2022-12-19T23:18:59.336Z,9.85
2022-12-19T23:21:27.054Z,9.98
2022-12-19T23:23:55.652Z,9.00
2022-12-19T23:26:23.726Z,10.75
2022-12-19T23:29:00.344Z,12.32
2022-12-19T23:31:28.951Z,9.80
2022-12-19T23:33:57.229Z,10.27
2022-12-19T23:37:00.269Z,8.27
2022-12-19T23:39:12.789Z,9.93
2022-12-19T23:41:40.097Z,10.75
2022-12-19T23:44:07.589Z,7.00
2022-12-19T23:46:34.375Z,9.77
2022-12-19T23:49:01.260Z,8.52
2022-12-19T23:51:28.442Z,9.73
2022-12-19T23:53:56.555Z,7.47
2022-12-19T23:56:29.967Z,9.68
2022-12-19T23:58:57.455Z,11.73
